Time;durP1;ratioP1;P1;durP2;ratioP2;P2;SDS_P1;SDS_P2;PMS_P1;PMS_P2;Temp;Humidity;BMP_temperature;BMP_pressure;BME280_temperature;BME280_humidity;BME280_pressure;Samples;Min_cycle;Max_cycle;Signal;HPM_P1;HPM_P2
2022/01/11 00:01:42;;;;;;;53.53;24.35;;;9.00;93.40;;;;;;4843110;29;20049;-78
2022/01/11 00:04:11;;;;;;;49.90;24.10;;;9.00;93.40;;;;;;4836353;29;20062;-78
2022/01/11 00:06:45;;;;;;;52.25;24.85;;;9.00;93.40;;;;;;4821479;29;20050;-78
2022/01/11 00:09:31;;;;;;;53.45;23.58;;;9.00;93.40;;;;;;4823559;29;20423;-77
2022/01/11 00:11:59;;;;;;;48.67;23.55;;;9.00;93.40;;;;;;4823386;29;20058;-77
2022/01/11 00:14:28;;;;;;;48.92;24.00;;;9.00;93.40;;;;;;4826298;29;20617;-77
2022/01/11 00:16:56;;;;;;;55.50;24.85;;;9.00;93.30;;;;;;4826255;29;20474;-78
2022/01/11 00:19:23;;;;;;;52.70;22.95;;;9.00;93.30;;;;;;4839348;29;20049;-77
2022/01/11 00:21:52;;;;;;;52.70;23.13;;;9.10;93.40;;;;;;4831216;29;20061;-77
2022/01/11 00:24:33;;;;;;;53.88;24.48;;;9.10;93.30;;;;;;4833285;29;20057;-77
2022/01/11 00:27:07;;;;;;;53.80;23.90;;;9.10;93.30;;;;;;4839550;29;20041;-77
2022/01/11 00:29:40;;;;;;;50.25;23.77;;;9.10;93.30;;;;;;4829124;29;20074;-77
2022/01/11 00:32:17;;;;;;;48.88;23.45;;;9.10;93.30;;;;;;4804811;29;20493;-77
2022/01/11 00:34:51;;;;;;;48.65;23.23;;;9.10;93.30;;;;;;4814686;29;20518;-77
2022/01/11 00:37:20;;;;;;;51.92;24.58;;;9.10;93.30;;;;;;4811386;29;20049;-77
2022/01/11 00:39:52;;;;;;;54.22;24.77;;;9.10;93.30;;;;;;4831124;29;20050;-77
2022/01/11 00:42:22;;;;;;;57.10;24.45;;;9.10;93.30;;;;;;4830559;29;20513;-77
2022/01/11 00:44:50;;;;;;;53.88;24.42;;;9.10;93.30;;;;;;4815216;29;20042;-77
2022/01/11 00:47:18;;;;;;;51.95;24.25;;;9.10;93.30;;;;;;4819308;29;20046;-77
2022/01/11 00:49:46;;;;;;;54.47;25.02;;;9.10;93.30;;;;;;4824500;29;20057;-77
2022/01/11 00:52:14;;;;;;;53.08;24.88;;;9.10;93.30;;;;;;4829658;29;20049;-77
2022/01/11 00:54:42;;;;;;;52.15;23.83;;;9.10;93.30;;;;;;4840880;29;20083;-77
2022/01/11 00:57:10;;;;;;;48.83;24.02;;;9.10;93.30;;;;;;4840049;29;20053;-77
2022/01/11 00:59:37;;;;;;;54.55;25.45;;;9.20;93.30;;;;;;4827911;29;20065;-77
2022/01/11 01:02:05;;;;;;;56.97;25.60;;;9.20;93.30;;;;;;4834752;29;20050;-77
2022/01/11 01:04:33;;;;;;;56.63;25.98;;;9.10;93.30;;;;;;4845192;29;20077;-78
2022/01/11 01:07:01;;;;;;;54.88;26.15;;;9.20;93.30;;;;;;4825406;29;20054;-78
2022/01/11 01:09:43;;;;;;;48.38;23.92;;;9.10;93.30;;;;;;4840795;29;20050;-77
2022/01/11 01:12:13;;;;;;;57.47;25.20;;;9.10;93.40;;;;;;4845902;29;20054;-77
2022/01/11 01:14:41;;;;;;;50.42;25.02;;;9.20;93.40;;;;;;4841585;29;20058;-78
2022/01/11 01:17:09;;;;;;;48.17;24.50;;;9.10;93.40;;;;;;4840321;29;20073;-77
2022/01/11 01:19:37;;;;;;;51.92;24.73;;;9.10;93.40;;;;;;4840241;29;20058;-77
2022/01/11 01:22:05;;;;;;;48.63;25.23;;;9.20;93.40;;;;;;4856250;29;20370;-77
2022/01/11 01:24:32;;;;;;;51.33;24.23;;;9.20;93.40;;;;;;4838948;29;20420;-77
2022/01/11 01:27:00;;;;;;;50.42;24.15;;;9.20;93.40;;;;;;4838606;29;20069;-77
2022/01/11 01:29:28;;;;;;;53.50;24.48;;;9.20;93.40;;;;;;4853401;29;20065;-77
2022/01/11 01:31:56;;;;;;;53.28;24.75;;;9.20;93.40;;;;;;4838202;29;20054;-77
2022/01/11 01:34:24;;;;;;;53.60;25.63;;;9.20;93.40;;;;;;4838517;29;20064;-77
2022/01/11 01:36:53;;;;;;;49.95;24.65;;;9.20;93.40;;;;;;4834294;29;20053;-77
2022/01/11 01:39:21;;;;;;;51.65;24.60;;;9.20;93.40;;;;;;4852402;29;20057;-77
2022/01/11 01:41:48;;;;;;;49.97;24.17;;;9.20;93.30;;;;;;4829193;29;20129;-77
2022/01/11 01:44:16;;;;;;;49.03;23.45;;;9.30;93.30;;;;;;4821882;29;20499;-77
2022/01/11 01:46:44;;;;;;;51.47;23.80;;;9.20;93.30;;;;;;4811613;29;20053;-78
2022/01/11 01:49:17;;;;;;;50.72;24.25;;;9.20;93.30;;;;;;4825101;29;20058;-77
2022/01/11 01:51:46;;;;;;;49.50;24.98;;;9.30;93.30;;;;;;4840458;29;20089;-77
2022/01/11 01:54:14;;;;;;;55.13;26.48;;;9.20;93.30;;;;;;4825431;29;20490;-78
2022/01/11 01:56:43;;;;;;;58.60;25.42;;;9.20;93.30;;;;;;4840109;29;20144;-77
2022/01/11 01:59:12;;;;;;;50.38;24.15;;;9.20;93.30;;;;;;4841421;29;20061;-78
2022/01/11 02:01:45;;;;;;;48.60;23.15;;;9.20;93.30;;;;;;4839546;29;20072;-78
2022/01/11 02:04:17;;;;;;;58.47;25.00;;;9.20;93.40;;;;;;4840088;29;20054;-78
2022/01/11 02:06:47;;;;;;;51.08;22.58;;;9.20;93.40;;;;;;4855438;29;20046;-78
2022/01/11 02:09:15;;;;;;;59.45;25.38;;;9.20;93.40;;;;;;4841685;29;20509;-78
2022/01/11 02:11:46;;;;;;;55.88;24.50;;;9.20;93.50;;;;;;4855303;29;20511;-78
2022/01/11 02:14:15;;;;;;;54.22;23.55;;;9.20;93.50;;;;;;4855714;29;20038;-79
2022/01/11 02:16:44;;;;;;;53.70;24.10;;;9.20;93.50;;;;;;4839996;29;20061;-79
2022/01/11 02:19:12;;;;;;;61.30;24.23;;;9.10;93.60;;;;;;4839523;29;20054;-79
2022/01/11 02:21:40;;;;;;;59.80;25.52;;;9.10;93.60;;;;;;4841307;29;20486;-79
2022/01/11 02:24:08;;;;;;;58.65;24.05;;;9.10;93.70;;;;;;4839881;29;20050;-79
2022/01/11 02:26:37;;;;;;;58.28;23.73;;;9.10;93.70;;;;;;4822730;29;20058;-78
2022/01/11 02:29:05;;;;;;;58.40;23.35;;;9.10;93.70;;;;;;4821571;29;20050;-78
2022/01/11 02:31:39;;;;;;;59.70;23.85;;;9.10;93.80;;;;;;4828306;29;20483;-77
2022/01/11 02:34:09;;;;;;;58.42;23.25;;;9.20;93.80;;;;;;4834072;29;20073;-77
2022/01/11 02:36:37;;;;;;;59.33;22.98;;;9.10;93.90;;;;;;4825973;29;20410;-77
2022/01/11 02:39:28;;;;;;;53.25;21.98;;;9.10;93.90;;;;;;4817195;29;20062;-77
2022/01/11 02:42:03;;;;;;;44.33;19.15;;;9.10;93.90;;;;;;4815337;29;20525;-77
2022/01/11 02:44:38;;;;;;;50.83;20.35;;;9.10;93.90;;;;;;4827813;29;20070;-78
2022/01/11 02:47:08;;;;;;;51.92;22.00;;;9.10;94.00;;;;;;4839163;29;20064;-77
2022/01/11 02:49:37;;;;;;;53.85;21.15;;;9.20;94.00;;;;;;4834228;29;20050;-77
2022/01/11 02:52:10;;;;;;;56.78;21.63;;;9.10;94.00;;;;;;4839388;29;20533;-77
2022/01/11 02:54:41;;;;;;;57.22;22.52;;;9.20;94.00;;;;;;4827711;29;20059;-77
2022/01/11 02:57:16;;;;;;;62.05;22.73;;;9.10;94.00;;;;;;4832587;29;20073;-77
2022/01/11 02:59:44;;;;;;;46.50;18.52;;;9.20;94.00;;;;;;4835330;29;20517;-78
2022/01/11 03:02:14;;;;;;;58.92;19.75;;;9.20;94.00;;;;;;4825416;29;20046;-78
2022/01/11 03:04:44;;;;;;;45.95;17.67;;;9.20;94.10;;;;;;4843913;29;20061;-78
2022/01/11 03:07:18;;;;;;;31.58;14.68;;;9.30;94.00;;;;;;4856787;29;20517;-78
2022/01/11 03:10:05;;;;;;;26.73;12.95;;;9.30;94.10;;;;;;4846857;29;20053;-78
2022/01/11 03:12:43;;;;;;;27.48;11.13;;;9.30;94.10;;;;;;4853289;29;20538;-78
2022/01/11 03:15:12;;;;;;;18.95;9.40;;;9.30;94.10;;;;;;4839462;29;20046;-79
2022/01/11 03:17:40;;;;;;;16.73;9.00;;;9.30;94.00;;;;;;4839050;29;20061;-79
2022/01/11 03:20:10;;;;;;;18.52;9.93;;;9.30;94.00;;;;;;4839275;29;20055;-79
2022/01/11 03:22:38;;;;;;;18.48;9.55;;;9.30;94.00;;;;;;4839681;29;20043;-79
2022/01/11 03:25:12;;;;;;;20.85;11.50;;;9.30;94.00;;;;;;4838510;29;20137;-79
2022/01/11 03:27:43;;;;;;;26.25;14.75;;;9.30;94.00;;;;;;4822973;29;20043;-79
2022/01/11 03:30:14;;;;;;;28.40;15.57;;;9.30;93.90;;;;;;4821991;29;20403;-79
2022/01/11 03:32:46;;;;;;;32.80;16.95;;;9.30;93.90;;;;;;4837213;29;20514;-79
2022/01/11 03:35:20;;;;;;;26.45;15.25;;;9.20;93.90;;;;;;4822411;29;20042;-79
2022/01/11 03:37:50;;;;;;;25.13;13.57;;;9.20;93.90;;;;;;4836919;29;20689;-78
2022/01/11 03:40:20;;;;;;;26.08;13.55;;;9.20;93.80;;;;;;4821685;29;20069;-79
2022/01/11 03:42:48;;;;;;;25.95;12.55;;;9.10;93.80;;;;;;4823743;29;20502;-79
2022/01/11 03:45:22;;;;;;;24.00;13.35;;;9.10;93.70;;;;;;4823797;29;20057;-79
2022/01/11 03:47:58;;;;;;;22.65;11.18;;;9.00;93.70;;;;;;4838221;29;20054;-79
2022/01/11 03:50:26;;;;;;;21.50;11.35;;;9.00;93.70;;;;;;4824030;29;20046;-79
2022/01/11 03:53:08;;;;;;;25.08;10.13;;;9.00;93.60;;;;;;4838033;29;20054;-78
2022/01/11 03:58:21;;;;;;;21.13;8.15;;;8.90;93.50;;;;;;4839002;29;20057;-78
2022/01/11 04:00:50;;;;;;;22.65;7.65;;;8.80;93.60;;;;;;4824808;29;20410;-79
2022/01/11 04:03:18;;;;;;;19.60;7.50;;;8.80;93.60;;;;;;4823700;29;20051;-78
2022/01/11 04:05:47;;;;;;;18.58;7.03;;;8.80;93.50;;;;;;4823198;29;20196;-79
2022/01/11 04:08:20;;;;;;;21.10;5.78;;;8.80;93.60;;;;;;4838908;29;20061;-79
2022/01/11 04:10:48;;;;;;;21.40;8.23;;;8.80;93.50;;;;;;4838167;29;20061;-79
2022/01/11 04:13:17;;;;;;;23.98;8.50;;;8.80;93.40;;;;;;4823232;29;20059;-78
2022/01/11 04:15:44;;;;;;;26.10;7.28;;;8.80;93.40;;;;;;4850453;29;20758;-79
2022/01/11 04:18:12;;;;;;;25.90;6.68;;;8.70;93.40;;;;;;4837898;29;20419;-79
2022/01/11 04:20:40;;;;;;;19.08;6.53;;;8.70;93.40;;;;;;4838743;29;20080;-79
2022/01/11 04:23:11;;;;;;;24.85;6.70;;;8.70;93.40;;;;;;4835883;29;20420;-79
2022/01/11 04:25:40;;;;;;;25.75;7.05;;;8.70;93.40;;;;;;4821437;29;20495;-79
2022/01/11 04:28:08;;;;;;;31.17;7.03;;;8.60;93.40;;;;;;4837929;29;20446;-79
2022/01/11 04:30:37;;;;;;;30.17;7.07;;;8.60;93.40;;;;;;4833637;29;20062;-79
2022/01/11 04:33:05;;;;;;;26.40;6.93;;;8.60;93.40;;;;;;4827365;29;20398;-79
2022/01/11 04:35:33;;;;;;;33.33;6.93;;;8.60;93.40;;;;;;4825154;29;20412;-79
2022/01/11 04:38:02;;;;;;;31.63;7.03;;;8.50;93.40;;;;;;4834956;29;20062;-79
2022/01/11 04:40:30;;;;;;;36.95;7.60;;;8.50;93.40;;;;;;4821610;29;20057;-79
2022/01/11 04:42:57;;;;;;;30.02;6.70;;;8.50;93.40;;;;;;4824805;29;20505;-79
2022/01/11 04:45:25;;;;;;;29.77;7.30;;;8.50;93.40;;;;;;4811983;29;20395;-79
2022/01/11 04:47:56;;;;;;;33.63;8.20;;;8.50;93.40;;;;;;4827888;29;20054;-80
2022/01/11 04:50:26;;;;;;;37.58;8.35;;;8.50;93.40;;;;;;4838338;29;20055;-79
2022/01/11 04:52:55;;;;;;;45.55;8.75;;;8.50;93.40;;;;;;4838046;29;20410;-79
2022/01/11 04:55:24;;;;;;;34.10;8.32;;;8.50;93.40;;;;;;4822789;29;20046;-79
2022/01/11 04:57:53;;;;;;;37.15;8.50;;;8.50;93.40;;;;;;4846265;29;20045;-79
2022/01/11 05:00:24;;;;;;;35.35;9.05;;;8.50;93.40;;;;;;4829229;29;20402;-80
2022/01/11 05:02:57;;;;;;;39.70;9.18;;;8.50;93.40;;;;;;4841087;29;20046;-79
2022/01/11 05:05:28;;;;;;;;;;;8.50;93.50;;;;;;4826514;29;20376;-79
2022/01/11 05:07:56;;;;;;;37.55;8.75;;;8.40;93.40;;;;;;4837619;29;19928;-79
2022/01/11 05:10:25;;;;;;;44.75;9.43;;;8.40;93.40;;;;;;4824502;29;20061;-79
2022/01/11 05:12:53;;;;;;;33.42;9.52;;;8.40;93.40;;;;;;4840195;29;20058;-78
2022/01/11 05:15:25;;;;;;;34.40;8.20;;;8.40;93.40;;;;;;4843357;29;20046;-79
2022/01/11 05:17:53;;;;;;;31.45;7.35;;;8.40;93.40;;;;;;4843312;29;20446;-78
2022/01/11 05:20:21;;;;;;;32.50;8.13;;;8.40;93.40;;;;;;4838453;29;20418;-79
2022/01/11 05:22:49;;;;;;;34.28;7.63;;;8.40;93.40;;;;;;4833418;29;20058;-78
2022/01/11 05:25:18;;;;;;;39.83;9.10;;;8.40;93.40;;;;;;4831504;29;20057;-78
2022/01/11 05:27:47;;;;;;;46.03;10.52;;;8.30;93.40;;;;;;4853872;29;20402;-79
2022/01/11 05:30:19;;;;;;;44.55;10.15;;;8.40;93.40;;;;;;4805800;29;20059;-78
2022/01/11 05:32:49;;;;;;;48.67;10.77;;;8.40;93.40;;;;;;4819615;29;20406;-78
2022/01/11 05:35:19;;;;;;;44.95;10.38;;;8.40;93.40;;;;;;4836162;29;20510;-78
2022/01/11 05:37:47;;;;;;;43.42;10.70;;;8.40;93.40;;;;;;4850477;29;20050;-80
2022/01/11 05:40:16;;;;;;;41.80;10.57;;;8.40;93.40;;;;;;4831483;29;20414;-78
2022/01/11 05:42:46;;;;;;;43.45;8.85;;;8.30;93.40;;;;;;4822231;29;20043;-78
2022/01/11 05:45:15;;;;;;;30.13;7.78;;;8.30;93.40;;;;;;4821923;29;20066;-79
2022/01/11 05:47:43;;;;;;;35.20;8.07;;;8.30;93.40;;;;;;4848388;29;20046;-79
2022/01/11 05:50:13;;;;;;;38.00;8.43;;;8.30;93.40;;;;;;4841829;29;20064;-79
2022/01/11 05:52:42;;;;;;;38.35;8.15;;;8.30;93.40;;;;;;4844585;29;20050;-79
2022/01/11 05:55:12;;;;;;;30.00;7.70;;;8.30;93.40;;;;;;4848774;29;20046;-79
2022/01/11 05:57:43;;;;;;;29.73;8.02;;;8.30;93.30;;;;;;4825533;29;20153;-78
2022/01/11 06:00:17;;;;;;;34.30;8.80;;;8.30;93.40;;;;;;4849707;29;20521;-78
2022/01/11 06:02:52;;;;;;;28.00;8.13;;;8.20;93.40;;;;;;4849384;29;20061;-78
2022/01/11 06:05:38;;;;;;;43.92;10.25;;;8.20;93.50;;;;;;4826281;29;20053;-79
2022/01/11 06:08:09;;;;;;;36.03;8.88;;;8.20;93.50;;;;;;4832185;29;20049;-78
2022/01/11 06:10:39;;;;;;;36.80;9.32;;;8.20;93.50;;;;;;4853390;29;20080;-79
2022/01/11 06:13:07;;;;;;;37.65;9.13;;;8.10;93.60;;;;;;4825876;29;20098;-78
2022/01/11 06:15:34;;;;;;;33.70;8.88;;;8.10;93.60;;;;;;4834385;29;20152;-78
2022/01/11 06:18:05;;;;;;;39.10;9.27;;;8.10;93.60;;;;;;4838630;29;20042;-79
2022/01/11 06:20:42;;;;;;;33.97;8.95;;;8.10;93.60;;;;;;4836678;29;20057;-79
2022/01/11 06:23:09;;;;;;;34.78;8.90;;;8.10;93.60;;;;;;4840464;29;20050;-79
2022/01/11 06:25:37;;;;;;;35.70;8.60;;;8.10;93.60;;;;;;4828692;29;20061;-79
2022/01/11 06:28:06;;;;;;;37.40;8.95;;;8.10;93.60;;;;;;4850124;29;20050;-79
2022/01/11 06:30:33;;;;;;;39.13;8.57;;;8.10;93.70;;;;;;4832280;29;20402;-79
2022/01/11 06:33:01;;;;;;;43.33;10.57;;;8.00;93.70;;;;;;4826243;29;20047;-79
2022/01/11 06:35:29;;;;;;;43.70;10.00;;;8.10;93.70;;;;;;4827390;29;20050;-79
2022/01/11 06:37:57;;;;;;;44.58;9.70;;;8.10;93.70;;;;;;4830855;29;20050;-80
2022/01/11 06:40:26;;;;;;;43.97;10.32;;;8.10;93.70;;;;;;4841515;29;20112;-79
2022/01/11 06:42:54;;;;;;;44.72;10.95;;;8.00;93.70;;;;;;4842238;29;20041;-78
2022/01/11 06:45:24;;;;;;;47.50;11.75;;;8.00;93.70;;;;;;4840773;29;20046;-80
2022/01/11 06:47:55;;;;;;;62.03;12.93;;;8.00;93.70;;;;;;4841798;29;20057;-79
2022/01/11 06:50:22;;;;;;;56.33;12.43;;;8.00;93.70;;;;;;4856671;29;20046;-79
2022/01/11 06:52:51;;;;;;;64.38;13.77;;;8.00;93.70;;;;;;4824958;29;20081;-77
2022/01/11 06:55:20;;;;;;;58.85;14.05;;;8.00;93.70;;;;;;4839799;29;20050;-82
2022/01/11 06:57:49;;;;;;;71.97;13.95;;;8.00;93.80;;;;;;4838486;29;20046;-80
2022/01/11 07:00:18;;;;;;;62.30;14.60;;;8.00;93.70;;;;;;4843674;29;20054;-78
2022/01/11 07:02:55;;;;;;;69.50;16.52;;;8.00;93.70;;;;;;4837693;29;20046;-78
2022/01/11 07:05:42;;;;;;;74.07;16.95;;;8.00;93.70;;;;;;4823597;29;20042;-78
2022/01/11 07:08:11;;;;;;;57.83;16.80;;;8.00;93.80;;;;;;4827659;29;20049;-78
2022/01/11 07:10:40;;;;;;;80.38;17.95;;;8.00;93.70;;;;;;4834337;29;20058;-78
2022/01/11 07:13:09;;;;;;;72.97;18.75;;;7.90;93.70;;;;;;4810292;29;20383;-78
2022/01/11 07:15:39;;;;;;;85.30;19.40;;;7.90;93.70;;;;;;4811041;29;20058;-78
2022/01/11 07:18:11;;;;;;;79.68;19.40;;;7.90;93.70;;;;;;4824262;29;20081;-78
2022/01/11 07:20:43;;;;;;;80.20;19.38;;;7.90;93.80;;;;;;4852354;29;20049;-79
2022/01/11 07:23:18;;;;;;;85.78;19.92;;;7.90;93.80;;;;;;4838608;29;20050;-79
2022/01/11 07:25:47;;;;;;;86.93;19.63;;;7.80;93.80;;;;;;4836387;29;20045;-78
2022/01/11 07:28:16;;;;;;;77.53;20.50;;;7.80;93.80;;;;;;4830008;29;20069;-78
2022/01/11 07:30:46;;;;;;;82.47;20.40;;;7.80;93.80;;;;;;4840726;29;20050;-78
2022/01/11 07:33:14;;;;;;;76.63;20.20;;;7.80;93.90;;;;;;4834356;29;20049;-78
2022/01/11 07:35:43;;;;;;;79.93;21.13;;;7.80;93.90;;;;;;4844544;29;20054;-78
2022/01/11 07:38:11;;;;;;;94.75;21.05;;;7.80;94.00;;;;;;4837509;29;20524;-79
2022/01/11 07:40:40;;;;;;;88.47;22.00;;;7.80;93.90;;;;;;4824983;29;20050;-78
2022/01/11 07:43:21;;;;;;;91.70;21.98;;;7.80;93.90;;;;;;4850035;29;20065;-77
2022/01/11 07:45:54;;;;;;;88.05;23.42;;;7.80;93.90;;;;;;4832226;29;20499;-78
2022/01/11 07:48:27;;;;;;;100.40;24.45;;;7.90;93.90;;;;;;4842329;29;20074;-78
2022/01/11 07:51:01;;;;;;;94.00;25.45;;;7.80;93.90;;;;;;4832420;29;20506;-78
2022/01/11 07:53:32;;;;;;;91.20;23.25;;;7.90;93.80;;;;;;4850545;29;20045;-78
2022/01/11 07:56:06;;;;;;;96.40;23.45;;;7.90;93.80;;;;;;4838913;29;20422;-79
2022/01/11 07:58:36;;;;;;;92.45;22.35;;;7.90;93.80;;;;;;4832259;29;20050;-78
2022/01/11 08:01:04;;;;;;;81.88;22.33;;;7.90;93.80;;;;;;4838379;29;20498;-79
2022/01/11 08:03:37;;;;;;;85.28;22.23;;;7.90;93.80;;;;;;4822390;29;20537;-78
2022/01/11 08:06:13;;;;;;;81.40;22.15;;;7.90;93.80;;;;;;4833133;29;20144;-78
2022/01/11 08:08:43;;;;;;;80.00;21.48;;;7.90;93.80;;;;;;4847059;29;20057;-79
2022/01/11 08:11:11;;;;;;;77.60;20.60;;;7.90;93.80;;;;;;4838472;29;20062;-77
2022/01/11 08:13:40;;;;;;;78.22;21.08;;;7.90;93.80;;;;;;4808151;29;20410;-78
2022/01/11 08:16:09;;;;;;;85.40;22.30;;;8.00;93.80;;;;;;4811315;29;20467;-79
2022/01/11 08:18:38;;;;;;;86.32;21.65;;;8.00;93.70;;;;;;4803638;29;20065;-78
2022/01/11 08:21:06;;;;;;;85.28;22.45;;;8.00;93.80;;;;;;4798353;29;20431;-78
2022/01/11 08:23:34;;;;;;;84.28;21.63;;;8.00;93.70;;;;;;4811454;29;20066;-79
2022/01/11 08:26:03;;;;;;;73.70;21.17;;;8.00;93.70;;;;;;4782038;29;20073;-79
2022/01/11 08:28:33;;;;;;;82.78;21.77;;;7.90;93.70;;;;;;4803599;29;20046;-81
2022/01/11 08:31:05;;;;;;;64.55;18.27;;;8.00;93.70;;;;;;4789950;29;20058;-79
2022/01/11 08:33:38;;;;;;;72.57;20.30;;;8.00;93.70;;;;;;4792948;29;20063;-79
2022/01/11 08:36:09;;;;;;;69.97;19.55;;;8.00;93.70;;;;;;4807630;29;20058;-80
2022/01/11 08:38:38;;;;;;;69.80;19.92;;;8.00;93.70;;;;;;4822718;29;20062;-80
2022/01/11 08:41:09;;;;;;;63.80;20.70;;;7.90;93.60;;;;;;4790649;29;20599;-79
2022/01/11 08:43:37;;;;;;;64.78;21.70;;;7.90;93.70;;;;;;4791267;29;20060;-79
2022/01/11 08:46:05;;;;;;;64.18;20.58;;;7.90;93.60;;;;;;4791224;29;20573;-79
2022/01/11 08:48:50;;;;;;;67.25;20.88;;;7.90;93.60;;;;;;4805583;29;20061;-80
2022/01/11 08:51:19;;;;;;;63.45;18.85;;;7.90;93.60;;;;;;4806585;29;20055;-80
2022/01/11 08:53:46;;;;;;;54.70;18.52;;;7.90;93.60;;;;;;4821870;29;20057;-79
2022/01/11 08:56:17;;;;;;;60.85;19.20;;;7.80;93.60;;;;;;4821780;29;20054;-80
2022/01/11 08:58:46;;;;;;;63.25;18.20;;;7.80;93.60;;;;;;4823387;29;20042;-80
2022/01/11 09:01:26;;;;;;;64.25;18.25;;;7.90;93.60;;;;;;4823203;29;20062;-80
2022/01/11 09:03:55;;;;;;;66.68;17.42;;;7.80;93.60;;;;;;4807949;29;20046;-80
2022/01/11 09:06:23;;;;;;;59.70;17.73;;;7.80;93.60;;;;;;4792847;29;20414;-80
2022/01/11 09:09:13;;;;;;;57.88;17.40;;;7.80;93.60;;;;;;4792776;29;20077;-80
2022/01/11 09:11:42;;;;;;;59.00;17.13;;;7.80;93.50;;;;;;4808713;29;20078;-80
2022/01/11 09:14:12;;;;;;;56.63;17.60;;;7.80;93.50;;;;;;4825819;29;20042;-80
2022/01/11 09:16:40;;;;;;;49.60;16.15;;;7.80;93.50;;;;;;4840852;29;20121;-80
2022/01/11 09:19:16;;;;;;;51.58;15.95;;;7.80;93.50;;;;;;4825519;29;20049;-80
2022/01/11 09:21:46;;;;;;;49.35;15.77;;;7.80;93.50;;;;;;4825665;29;20054;-80
2022/01/11 09:24:19;;;;;;;57.35;16.38;;;7.80;93.50;;;;;;4840083;29;20494;-81
2022/01/11 09:26:53;;;;;;;47.65;15.75;;;7.80;93.40;;;;;;4825064;29;20058;-80
2022/01/11 09:29:21;;;;;;;50.80;16.87;;;7.80;93.40;;;;;;4840771;29;20050;-80
2022/01/11 09:31:49;;;;;;;57.63;15.23;;;7.80;93.30;;;;;;4810023;29;20062;-80
2022/01/11 09:34:17;;;;;;;48.47;15.65;;;7.80;93.30;;;;;;4825885;29;20050;-80
2022/01/11 09:36:45;;;;;;;56.25;17.45;;;7.80;93.30;;;;;;4833087;29;20054;-80
2022/01/11 09:39:13;;;;;;;59.15;16.50;;;7.80;93.30;;;;;;4814802;29;20033;-80
2022/01/11 09:41:41;;;;;;;47.55;14.50;;;7.80;93.30;;;;;;4800822;29;20050;-79
2022/01/11 09:44:12;;;;;;;43.72;14.73;;;7.90;93.30;;;;;;4802935;29;20054;-79
2022/01/11 09:46:41;;;;;;;53.78;14.88;;;7.90;93.20;;;;;;4841313;29;20069;-78
2022/01/11 09:49:10;;;;;;;48.20;13.90;;;7.90;93.20;;;;;;4816187;29;20038;-80
2022/01/11 09:51:39;;;;;;;48.35;13.57;;;7.80;93.00;;;;;;4790617;29;20060;-79
2022/01/11 09:54:08;;;;;;;47.80;11.88;;;7.80;92.90;;;;;;4835909;29;20434;-80
2022/01/11 09:56:39;;;;;;;37.90;10.60;;;7.80;92.90;;;;;;4826944;29;20058;-80
2022/01/11 09:59:10;;;;;;;43.60;11.00;;;7.70;92.80;;;;;;4822739;29;20049;-79
2022/01/11 10:02:16;;;;;;;53.35;10.48;;;7.70;92.80;;;;;;4764151;30;20060;-80
2022/01/11 10:05:05;;;;;;;46.63;10.70;;;7.70;92.90;;;;;;4764127;30;20056;-79
2022/01/11 10:08:27;;;;;;;36.88;9.38;;;7.60;92.90;;;;;;4737784;30;20059;-79
2022/01/11 10:10:57;;;;;;;37.42;8.75;;;7.50;92.90;;;;;;4763298;30;20063;-79
2022/01/11 10:13:37;;;;;;;41.85;9.52;;;7.60;92.90;;;;;;4778762;30;20540;-79
2022/01/11 10:16:26;;;;;;;37.17;9.32;;;7.60;92.90;;;;;;4771954;30;20051;-79
2022/01/11 10:18:58;;;;;;;37.55;8.98;;;7.60;92.90;;;;;;4766562;30;20164;-79
2022/01/11 10:21:33;;;;;;;45.80;9.00;;;7.60;92.90;;;;;;4780120;30;20047;-79
2022/01/11 10:24:31;;;;;;;39.50;9.05;;;7.50;92.90;;;;;;4764997;30;20055;-79
2022/01/11 10:27:04;;;;;;;39.60;7.82;;;7.60;92.90;;;;;;4758205;30;20067;-77
2022/01/11 10:29:40;;;;;;;42.47;7.70;;;7.60;92.90;;;;;;4755258;30;20051;-79
2022/01/11 10:32:39;;;;;;;35.67;7.80;;;7.60;92.90;;;;;;4774064;29;20047;-79
2022/01/11 10:35:30;;;;;;;46.83;7.82;;;7.70;92.90;;;;;;4791891;29;20078;-79
2022/01/11 10:38:38;;;;;;;37.28;7.97;;;7.70;92.90;;;;;;4805577;29;20495;-79
2022/01/11 10:41:43;;;;;;;46.47;9.30;;;7.80;92.90;;;;;;4807342;29;20066;-79
2022/01/11 10:44:47;;;;;;;33.67;8.30;;;7.90;92.80;;;;;;4793561;29;20414;-78
2022/01/11 10:47:22;;;;;;;32.55;7.82;;;8.10;92.70;;;;;;4794668;29;20510;-79
2022/01/11 10:49:53;;;;;;;41.58;7.35;;;8.20;92.60;;;;;;4794818;29;20503;-79
2022/01/11 10:52:24;;;;;;;40.92;6.65;;;8.30;92.40;;;;;;4794903;29;20066;-79
2022/01/11 10:55:08;;;;;;;31.77;5.90;;;8.50;92.30;;;;;;4794578;29;20411;-78
2022/01/11 10:57:38;;;;;;;38.17;7.47;;;8.50;91.90;;;;;;4809917;29;20131;-78
2022/01/11 11:00:25;;;;;;;41.85;6.53;;;8.50;91.70;;;;;;4809427;29;20491;-79
2022/01/11 11:03:00;;;;;;;30.27;5.47;;;8.60;91.60;;;;;;4806643;29;20054;-78
2022/01/11 11:05:36;;;;;;;30.48;5.75;;;8.70;91.40;;;;;;4791702;29;20047;-78
2022/01/11 11:08:34;;;;;;;35.85;6.13;;;8.70;91.10;;;;;;4804903;29;20070;-79
2022/01/11 11:11:25;;;;;;;32.88;6.18;;;8.70;90.70;;;;;;4802243;29;20070;-78
2022/01/11 11:14:16;;;;;;;42.42;6.07;;;8.80;90.60;;;;;;4825471;29;20529;-78
2022/01/11 11:17:34;;;;;;;28.60;5.75;;;8.80;90.60;;;;;;4824206;29;20054;-78
2022/01/11 11:20:10;;;;;;;;;;;8.80;90.50;;;;;;4825116;29;20046;-79
2022/01/11 11:22:40;;;;;;;34.13;5.97;;;8.80;90.30;;;;;;4825539;29;19929;-79
2022/01/11 11:25:08;;;;;;;31.33;5.65;;;8.80;90.30;;;;;;4825269;29;20054;-79
2022/01/11 11:27:36;;;;;;;38.90;5.68;;;8.80;90.20;;;;;;4825771;29;20054;-79
2022/01/11 11:30:05;;;;;;;35.10;5.85;;;8.80;90.00;;;;;;4809637;29;20521;-79
2022/01/11 11:32:33;;;;;;;38.20;5.45;;;8.80;90.00;;;;;;4827985;29;20046;-78
2022/01/11 11:35:01;;;;;;;36.28;5.85;;;8.80;89.90;;;;;;4830793;29;20057;-78
2022/01/11 11:37:35;;;;;;;28.00;4.45;;;8.80;89.90;;;;;;4828576;29;20069;-78
2022/01/11 11:40:25;;;;;;;21.45;4.50;;;8.80;89.60;;;;;;4825901;29;20215;-78
2022/01/11 11:42:58;;;;;;;30.77;4.85;;;8.80;89.30;;;;;;4825263;29;20046;-78
2022/01/11 11:45:31;;;;;;;37.65;5.55;;;8.70;89.20;;;;;;4809465;29;20050;-78
2022/01/11 11:48:06;;;;;;;36.40;5.50;;;8.60;89.10;;;;;;4809244;29;20063;-78
2022/01/11 11:51:06;;;;;;;37.90;5.93;;;8.50;89.20;;;;;;4809029;29;20396;-78
2022/01/11 11:53:39;;;;;;;32.88;6.03;;;8.50;89.40;;;;;;4824679;29;20066;-78
2022/01/11 11:56:25;;;;;;;39.33;7.37;;;8.50;89.50;;;;;;4825028;29;20398;-79
2022/01/11 11:58:58;;;;;;;26.90;5.13;;;8.60;89.60;;;;;;4824902;29;20306;-79
2022/01/11 12:01:45;;;;;;;26.20;4.65;;;8.60;89.70;;;;;;4824696;29;20077;-79
2022/01/11 12:04:26;;;;;;;28.83;5.03;;;8.70;89.60;;;;;;4824942;29;20514;-78
2022/01/11 12:06:55;;;;;;;31.83;5.85;;;8.70;89.60;;;;;;4823258;29;20058;-78
2022/01/11 12:09:29;;;;;;;23.63;4.90;;;8.70;89.50;;;;;;4825240;29;20042;-78
2022/01/11 12:11:59;;;;;;;26.25;5.32;;;8.70;89.40;;;;;;4824743;29;20046;-79
2022/01/11 12:14:32;;;;;;;35.00;5.18;;;8.70;89.50;;;;;;4824580;29;20053;-78
2022/01/11 12:17:11;;;;;;;;;;;8.70;89.40;;;;;;4824145;29;20042;-79
2022/01/11 12:19:48;;;;;;;28.70;4.93;;;8.70;89.20;;;;;;4822928;29;20145;-79
2022/01/11 12:22:31;;;;;;;28.83;4.68;;;8.70;89.00;;;;;;4821703;29;20606;-79
2022/01/11 12:25:03;;;;;;;23.42;4.00;;;8.60;88.90;;;;;;4822531;29;20319;-78
2022/01/11 12:28:01;;;;;;;29.33;4.03;;;8.70;88.80;;;;;;4823034;29;20061;-79
2022/01/11 12:30:31;;;;;;;29.10;4.03;;;8.60;88.20;;;;;;4822932;29;20050;-79
2022/01/11 12:33:27;;;;;;;27.70;4.32;;;8.60;88.20;;;;;;4823216;29;20058;-79
2022/01/11 12:36:04;;;;;;;31.17;4.50;;;8.60;88.20;;;;;;4791673;29;20054;-79
2022/01/11 12:38:33;;;;;;;28.95;4.25;;;8.60;88.10;;;;;;4822910;29;20414;-79
2022/01/11 12:41:30;;;;;;;37.92;5.47;;;8.50;87.90;;;;;;4841423;29;20061;-79
2022/01/11 12:47:10;;;;;;;28.70;5.03;;;8.40;87.70;;;;;;4842527;29;20053;-78
2022/01/11 12:49:44;;;;;;;18.77;4.15;;;8.40;87.70;;;;;;4841040;29;20061;-78
2022/01/11 12:52:14;;;;;;;24.70;4.07;;;8.30;87.60;;;;;;4842676;29;20053;-79
2022/01/11 12:54:48;;;;;;;26.88;4.82;;;8.30;87.10;;;;;;4841077;29;20050;-78
2022/01/11 12:57:18;;;;;;;26.45;4.30;;;8.30;87.10;;;;;;4835880;29;20049;-79
2022/01/11 12:59:58;;;;;;;29.70;4.22;;;8.30;87.00;;;;;;4831346;29;20413;-79
2022/01/11 13:02:28;;;;;;;31.55;4.78;;;8.20;86.80;;;;;;4831147;29;20062;-79
2022/01/11 13:05:17;;;;;;;30.13;4.65;;;8.20;86.70;;;;;;4814708;29;20049;-79
2022/01/11 13:07:50;;;;;;;26.02;5.03;;;8.10;86.60;;;;;;4831712;29;20057;-79
2022/01/11 13:10:23;;;;;;;27.67;4.13;;;8.10;86.60;;;;;;4830662;29;20049;-79
2022/01/11 13:13:04;;;;;;;34.92;4.25;;;8.10;86.60;;;;;;4831244;29;20515;-78
2022/01/11 13:15:37;;;;;;;19.17;3.75;;;8.00;86.40;;;;;;4836715;29;20450;-78
2022/01/11 13:18:12;;;;;;;;;;;8.10;86.50;;;;;;4827876;29;20062;-78